createdAt,value
2018-10-21T00:02:23.796Z,68.30
2018-10-21T00:05:26.712Z,68.50
2018-10-21T00:08:29.709Z,68.50
2018-10-21T00:11:32.719Z,68.50
2018-10-21T00:14:35.681Z,68.10
2018-10-21T00:17:38.650Z,68.00
2018-10-21T00:20:42.469Z,68.00
2018-10-21T00:23:45.456Z,69.40
2018-10-21T00:26:48.446Z,68.60
2018-10-21T00:29:51.419Z,70.00
2018-10-21T00:32:54.414Z,70.10
2018-10-21T00:35:57.308Z,68.90
2018-10-21T00:39:00.266Z,68.90
2018-10-21T00:42:03.192Z,70.00
2018-10-21T00:45:07.083Z,70.10
2018-10-21T00:48:09.969Z,68.40
2018-10-21T00:51:12.930Z,70.10
2018-10-21T00:54:16.392Z,70.30
2018-10-21T00:57:19.379Z,70.20
2018-10-21T01:00:22.386Z,70.80
2018-10-21T01:03:25.405Z,70.90
2018-10-21T01:06:28.396Z,71.10
2018-10-21T01:09:31.354Z,71.40
2018-10-21T01:12:34.279Z,72.00
2018-10-21T01:15:37.271Z,71.70
2018-10-21T01:18:40.225Z,71.60
2018-10-21T01:21:43.179Z,71.90
2018-10-21T01:24:46.089Z,71.10
2018-10-21T01:27:49.081Z,71.20
2018-10-21T01:30:51.998Z,71.20
2018-10-21T01:33:54.960Z,70.70
2018-10-21T01:36:58.077Z,70.40
2018-10-21T01:40:41.563Z,70.60
2018-10-21T01:43:44.539Z,70.70
2018-10-21T01:46:47.442Z,70.60
2018-10-21T01:49:50.371Z,70.90
2018-10-21T01:52:54.241Z,71.30
2018-10-21T01:55:57.221Z,71.20
2018-10-21T01:59:00.152Z,71.10
2018-10-21T02:02:03.093Z,70.80
2018-10-21T02:05:06.609Z,70.90
2018-10-21T02:08:09.678Z,71.20
2018-10-21T02:11:12.647Z,70.90
2018-10-21T02:14:15.621Z,70.80
2018-10-21T02:17:18.606Z,71.10
2018-10-21T02:20:22.098Z,71.50
2018-10-21T02:23:25.048Z,71.20
2018-10-21T02:26:28.127Z,71.20
2018-10-21T02:29:30.989Z,71.30
2018-10-21T02:32:33.941Z,70.80
2018-10-21T02:35:36.885Z,70.60
2018-10-21T02:38:39.927Z,70.90
2018-10-21T02:41:55.889Z,71.10
2018-10-21T02:44:58.889Z,70.80
2018-10-21T02:48:01.859Z,70.90
2018-10-21T02:51:04.995Z,71.10
2018-10-21T02:54:08.240Z,71.00
2018-10-21T02:57:12.391Z,71.00
2018-10-21T03:00:15.335Z,71.30
2018-10-21T03:03:18.417Z,71.10
2018-10-21T03:06:21.376Z,71.10
2018-10-21T03:09:24.608Z,71.30
2018-10-21T03:12:27.614Z,71.40
2018-10-21T03:15:30.550Z,72.00
2018-10-21T03:18:33.620Z,73.70
2018-10-21T03:21:36.642Z,73.80
2018-10-21T03:24:39.618Z,73.10
2018-10-21T03:27:42.666Z,72.70
2018-10-21T03:30:45.590Z,72.30
2018-10-21T03:33:48.572Z,72.90
2018-10-21T03:36:51.456Z,74.10
2018-10-21T03:39:54.405Z,74.40
2018-10-21T03:42:57.370Z,73.70
2018-10-21T03:46:00.364Z,72.80
2018-10-21T03:49:03.338Z,72.40
2018-10-21T03:52:06.377Z,72.00
2018-10-21T03:55:09.383Z,71.50
2018-10-21T03:58:12.453Z,71.80
2018-10-21T04:01:15.278Z,71.50
2018-10-21T04:04:18.297Z,71.80
2018-10-21T04:07:21.245Z,71.70
2018-10-21T04:10:24.376Z,71.70
2018-10-21T04:13:27.396Z,71.50
2018-10-21T04:16:30.411Z,71.50
2018-10-21T04:19:33.403Z,71.30
2018-10-21T04:22:55.573Z,71.30
2018-10-21T04:25:58.544Z,71.30
2018-10-21T04:29:01.476Z,71.50
2018-10-21T04:32:04.521Z,71.70
2018-10-21T04:35:07.587Z,72.40
2018-10-21T04:38:32.355Z,71.90
2018-10-21T04:41:35.329Z,72.40
2018-10-21T04:44:38.310Z,72.00
2018-10-21T04:47:41.427Z,72.00
2018-10-21T04:50:44.777Z,71.70
2018-10-21T04:53:47.850Z,71.60
2018-10-21T04:56:50.809Z,71.80
2018-10-21T04:59:53.733Z,71.70
2018-10-21T05:02:56.672Z,72.30
2018-10-21T05:05:59.647Z,71.70
2018-10-21T05:09:02.815Z,71.40
2018-10-21T05:12:06.027Z,71.60
2018-10-21T05:15:09.041Z,71.90
2018-10-21T05:18:11.974Z,72.00
2018-10-21T05:21:14.934Z,71.90
2018-10-21T05:24:17.893Z,71.80
2018-10-21T05:27:20.863Z,71.80
2018-10-21T05:30:23.836Z,71.70
2018-10-21T05:33:26.810Z,71.80
2018-10-21T05:36:29.747Z,71.70
2018-10-21T05:39:32.694Z,71.70
2018-10-21T05:42:36.179Z,71.70
2018-10-21T05:45:39.170Z,72.10
2018-10-21T05:48:42.164Z,71.90
2018-10-21T05:51:46.311Z,72.30
2018-10-21T05:54:49.251Z,72.10
2018-10-21T05:57:52.237Z,71.90
2018-10-21T06:00:55.185Z,72.00
2018-10-21T06:03:58.514Z,72.30
2018-10-21T06:07:01.455Z,72.00
2018-10-21T06:10:04.968Z,71.80
2018-10-21T06:13:08.084Z,72.10
2018-10-21T06:16:11.077Z,72.10
2018-10-21T06:19:18.098Z,72.50
2018-10-21T06:22:21.007Z,72.50
2018-10-21T06:25:24.009Z,72.40
2018-10-21T06:28:27.038Z,72.20
2018-10-21T06:31:29.984Z,72.30
2018-10-21T06:34:32.960Z,72.50
2018-10-21T06:37:35.966Z,72.60
2018-10-21T06:40:38.941Z,72.80
2018-10-21T06:43:41.911Z,72.80
2018-10-21T06:46:44.849Z,72.90
2018-10-21T06:49:47.779Z,72.90
2018-10-21T06:52:50.766Z,73.30
2018-10-21T06:55:53.710Z,72.90
2018-10-21T06:58:57.083Z,73.40
2018-10-21T07:02:00.103Z,73.50
2018-10-21T07:05:03.246Z,73.50
2018-10-21T07:08:06.126Z,73.50
2018-10-21T07:11:09.144Z,73.50
2018-10-21T07:14:12.122Z,73.40
2018-10-21T07:17:15.064Z,74.00
2018-10-21T07:20:18.081Z,74.30
2018-10-21T07:23:21.002Z,74.40
2018-10-21T07:26:23.970Z,74.40
2018-10-21T07:29:26.962Z,74.50
2018-10-21T07:32:29.905Z,74.70
2018-10-21T07:35:32.873Z,74.80
2018-10-21T07:38:35.830Z,75.00
2018-10-21T07:41:38.836Z,75.50
2018-10-21T07:44:41.799Z,75.20
2018-10-21T07:47:44.751Z,75.40
2018-10-21T07:50:47.687Z,75.60
2018-10-21T07:53:50.661Z,75.80
2018-10-21T07:56:53.602Z,75.80
2018-10-21T07:59:56.561Z,76.00
2018-10-21T08:02:59.555Z,76.30
2018-10-21T08:06:32.202Z,76.60
2018-10-21T08:09:35.130Z,76.90
2018-10-21T08:12:38.101Z,77.00
2018-10-21T08:15:41.716Z,77.10
2018-10-21T08:18:44.688Z,77.40
2018-10-21T08:21:47.709Z,77.70
2018-10-21T08:24:50.825Z,77.40
2018-10-21T08:27:53.843Z,77.70
2018-10-21T08:30:56.751Z,77.70
2018-10-21T08:33:59.793Z,77.80
2018-10-21T08:37:02.687Z,78.10
2018-10-21T08:40:06.111Z,78.30
2018-10-21T08:43:08.978Z,78.10
2018-10-21T08:46:12.008Z,78.70
2018-10-21T08:49:15.036Z,78.60
2018-10-21T08:52:17.935Z,78.50
2018-10-21T08:55:20.882Z,78.90
2018-10-21T08:58:23.862Z,78.80
2018-10-21T09:01:26.897Z,77.90
2018-10-21T09:04:29.850Z,77.60
2018-10-21T09:07:32.751Z,77.50
2018-10-21T09:10:35.729Z,77.40
2018-10-21T09:13:38.661Z,77.90
2018-10-21T09:16:41.636Z,77.70
2018-10-21T09:19:44.603Z,78.10
2018-10-21T09:22:47.496Z,76.60
2018-10-21T09:25:50.486Z,80.10
2018-10-21T09:28:53.467Z,77.60
2018-10-21T09:31:56.433Z,76.50
2018-10-21T09:34:59.384Z,77.00
2018-10-21T09:38:02.307Z,77.30
2018-10-21T09:41:05.294Z,77.40
2018-10-21T09:44:08.979Z,77.90
2018-10-21T09:47:12.014Z,78.00
2018-10-21T09:50:15.068Z,78.50
2018-10-21T09:53:18.036Z,79.60
2018-10-21T09:56:21.858Z,78.50
2018-10-21T09:59:24.878Z,77.60
2018-10-21T10:02:33.681Z,76.60
2018-10-21T10:05:36.602Z,74.80
2018-10-21T10:08:39.578Z,75.00
2018-10-21T10:11:43.018Z,75.30
2018-10-21T10:14:45.959Z,74.20
2018-10-21T10:17:48.995Z,75.90
2018-10-21T10:20:51.949Z,70.40
2018-10-21T10:23:55.395Z,67.40
2018-10-21T10:26:58.577Z,66.30
2018-10-21T10:30:01.732Z,66.60
2018-10-21T10:33:05.152Z,67.80
2018-10-21T10:36:08.274Z,68.90
2018-10-21T10:39:11.530Z,66.00
2018-10-21T10:42:14.693Z,67.50
2018-10-21T10:45:17.830Z,67.80
2018-10-21T10:48:20.982Z,64.60
2018-10-21T10:51:23.939Z,65.10
2018-10-21T10:54:27.050Z,62.70
2018-10-21T10:57:30.164Z,66.70
2018-10-21T11:00:33.251Z,68.60
2018-10-21T11:03:36.363Z,66.80
2018-10-21T11:06:39.497Z,63.90
2018-10-21T11:09:42.722Z,66.00
2018-10-21T11:12:45.846Z,59.60
2018-10-21T11:15:48.963Z,61.60
2018-10-21T11:18:52.266Z,62.60
2018-10-21T11:21:55.418Z,64.80
2018-10-21T11:24:58.360Z,63.00
2018-10-21T11:28:01.676Z,61.60
2018-10-21T11:31:05.172Z,59.40
2018-10-21T11:34:08.615Z,62.30
2018-10-21T11:37:12.605Z,62.70
2018-10-21T11:40:15.634Z,61.60
2018-10-21T11:43:18.593Z,61.10
2018-10-21T11:46:21.608Z,60.70
2018-10-21T11:49:24.666Z,58.60
2018-10-21T11:52:27.657Z,57.30
2018-10-21T11:55:37.162Z,60.30
2018-10-21T11:58:40.105Z,59.40
2018-10-21T12:01:43.354Z,60.50
2018-10-21T12:04:46.850Z,62.10
2018-10-21T12:07:50.436Z,59.70
2018-10-21T12:10:54.048Z,59.50
2018-10-21T12:13:57.437Z,60.40
2018-10-21T12:17:00.577Z,55.70
2018-10-21T12:20:04.100Z,56.60
2018-10-21T12:23:10.668Z,54.70
2018-10-21T12:26:14.137Z,54.50
2018-10-21T12:29:17.465Z,57.10
2018-10-21T12:32:20.447Z,55.00
2018-10-21T12:35:23.921Z,56.00
2018-10-21T12:38:30.310Z,55.70
2018-10-21T12:41:33.954Z,57.20
2018-10-21T12:44:37.551Z,57.10
2018-10-21T12:47:40.926Z,54.40
2018-10-21T12:50:44.134Z,53.90
2018-10-21T12:53:47.266Z,52.50
2018-10-21T12:56:50.434Z,56.70
2018-10-21T12:59:53.474Z,57.00
2018-10-21T13:02:56.502Z,56.10
2018-10-21T13:05:59.550Z,55.90
2018-10-21T13:09:04.591Z,53.60
2018-10-21T13:12:07.961Z,55.20
2018-10-21T13:15:11.107Z,52.60
2018-10-21T13:18:14.318Z,52.50
2018-10-21T13:21:17.518Z,54.70
2018-10-21T13:24:20.557Z,54.30
2018-10-21T13:27:23.766Z,53.70
2018-10-21T13:30:26.834Z,49.90
2018-10-21T13:33:29.859Z,54.60
2018-10-21T13:36:33.582Z,49.40
2018-10-21T13:39:37.418Z,50.60
2018-10-21T13:42:41.956Z,54.30
2018-10-21T13:45:45.910Z,49.80
2018-10-21T13:48:49.377Z,52.00
2018-10-21T13:51:53.010Z,52.90
2018-10-21T13:54:56.609Z,51.60
2018-10-21T13:58:00.346Z,51.70
2018-10-21T14:01:04.306Z,51.30
2018-10-21T14:04:08.227Z,51.60
2018-10-21T14:07:11.663Z,52.90
2018-10-21T14:10:15.014Z,51.20
2018-10-21T14:13:18.122Z,51.70
2018-10-21T14:16:21.245Z,51.80
2018-10-21T14:19:24.194Z,53.30
2018-10-21T14:22:27.757Z,53.50
2018-10-21T14:25:30.696Z,53.50
2018-10-21T14:28:33.771Z,53.30
2018-10-21T14:31:36.834Z,52.80
2018-10-21T14:34:40.218Z,53.40
2018-10-21T14:37:43.739Z,55.50
2018-10-21T14:40:47.141Z,53.60
2018-10-21T14:43:51.004Z,54.90
2018-10-21T14:46:54.814Z,54.70
2018-10-21T14:49:58.257Z,56.50
2018-10-21T14:53:01.729Z,57.50
2018-10-21T14:56:05.361Z,59.40
2018-10-21T14:59:08.885Z,61.10
2018-10-21T15:02:11.992Z,58.80
2018-10-21T15:05:15.176Z,61.90
2018-10-21T15:08:22.834Z,62.50
2018-10-21T15:11:25.825Z,63.60
2018-10-21T15:14:28.820Z,66.40
2018-10-21T15:17:31.746Z,66.20
2018-10-21T15:20:34.733Z,64.70
2018-10-21T15:23:37.630Z,65.90
2018-10-21T15:26:40.658Z,67.30
2018-10-21T15:29:44.551Z,67.20
2018-10-21T15:32:47.646Z,67.50
2018-10-21T15:35:50.853Z,68.00
2018-10-21T15:38:54.006Z,69.30
2018-10-21T15:41:56.903Z,69.50
2018-10-21T15:44:59.840Z,68.90
2018-10-21T15:48:02.870Z,69.80
2018-10-21T15:51:05.868Z,70.00
2018-10-21T15:54:09.083Z,70.10
2018-10-21T15:57:12.061Z,70.00
2018-10-21T16:00:15.024Z,69.90
2018-10-21T16:03:17.940Z,70.00
2018-10-21T16:06:20.978Z,70.30
2018-10-21T16:09:23.931Z,70.00
2018-10-21T16:12:26.883Z,69.90
2018-10-21T16:15:29.837Z,69.70
2018-10-21T16:18:32.762Z,69.70
2018-10-21T16:21:35.691Z,69.70
2018-10-21T16:24:40.494Z,69.50
2018-10-21T16:27:44.864Z,70.10
2018-10-21T16:30:48.011Z,69.50
2018-10-21T16:33:50.941Z,69.20
2018-10-21T16:36:53.919Z,69.10
2018-10-21T16:39:56.903Z,68.90
2018-10-21T16:42:59.915Z,68.90
2018-10-21T16:46:03.006Z,68.40
2018-10-21T16:49:05.966Z,68.60
2018-10-21T16:52:08.930Z,68.50
2018-10-21T16:55:12.629Z,68.60
2018-10-21T16:58:15.557Z,68.50
2018-10-21T17:01:18.511Z,68.40
2018-10-21T17:04:21.466Z,68.20
2018-10-21T17:07:24.415Z,72.80
2018-10-21T17:10:27.709Z,66.90
2018-10-21T17:13:30.381Z,67.20
2018-10-21T17:16:33.339Z,67.20
2018-10-21T17:19:36.400Z,67.50
2018-10-21T17:22:40.182Z,67.10
2018-10-21T17:25:43.370Z,67.20
2018-10-21T17:28:46.526Z,67.30
2018-10-21T17:31:49.700Z,67.40
2018-10-21T17:34:52.903Z,67.40
2018-10-21T17:37:56.168Z,67.00
2018-10-21T17:40:59.310Z,66.80
2018-10-21T17:44:02.418Z,66.60
2018-10-21T17:47:05.613Z,66.40
2018-10-21T17:50:10.458Z,66.50
2018-10-21T17:53:13.484Z,67.40
2018-10-21T17:56:16.585Z,66.80
2018-10-21T17:59:20.193Z,66.90
2018-10-21T18:02:25.408Z,66.90
2018-10-21T18:05:28.786Z,67.20
2018-10-21T18:08:32.837Z,67.10
2018-10-21T18:11:36.815Z,67.10
2018-10-21T18:14:40.230Z,66.80
2018-10-21T18:17:43.284Z,66.80
2018-10-21T18:20:46.675Z,66.70
2018-10-21T18:23:49.785Z,66.70
2018-10-21T18:26:53.126Z,66.60
2018-10-21T18:29:56.359Z,66.70
2018-10-21T18:32:59.978Z,66.90
2018-10-21T18:36:04.182Z,66.60
2018-10-21T18:39:09.192Z,66.50
2018-10-21T18:42:12.726Z,66.60
2018-10-21T18:45:15.975Z,66.50
2018-10-21T18:48:20.499Z,66.50
2018-10-21T18:51:23.813Z,67.10
2018-10-21T18:54:27.198Z,67.50
2018-10-21T18:57:30.310Z,67.40
2018-10-21T19:00:33.325Z,66.70
2018-10-21T19:03:36.502Z,67.00
2018-10-21T19:06:40.009Z,66.80
2018-10-21T19:09:43.562Z,66.70
2018-10-21T19:12:59.569Z,66.60
2018-10-21T19:15:49.826Z,66.70
2018-10-21T19:18:52.882Z,67.70
2018-10-21T19:21:56.351Z,67.00
2018-10-21T19:24:59.895Z,67.60
2018-10-21T19:28:03.494Z,66.90
2018-10-21T19:31:07.098Z,66.80
2018-10-21T19:34:10.108Z,66.90
2018-10-21T19:37:13.190Z,67.00
2018-10-21T19:40:16.718Z,66.90
2018-10-21T19:43:20.158Z,66.60
2018-10-21T19:46:23.454Z,66.70
2018-10-21T19:49:27.371Z,66.60
2018-10-21T19:52:30.466Z,66.70
2018-10-21T19:55:33.537Z,66.60
2018-10-21T19:58:37.024Z,66.60
2018-10-21T20:01:40.524Z,66.50
2018-10-21T20:04:43.876Z,66.60
2018-10-21T20:07:47.598Z,66.90
2018-10-21T20:10:50.663Z,67.20
2018-10-21T20:13:53.991Z,67.60
2018-10-21T20:16:56.988Z,67.30
2018-10-21T20:20:00.323Z,70.00
2018-10-21T20:23:04.010Z,68.10
2018-10-21T20:26:07.585Z,67.60
2018-10-21T20:29:10.846Z,67.70
2018-10-21T20:32:14.131Z,68.10
2018-10-21T20:35:17.702Z,68.30
2018-10-21T20:38:21.136Z,68.10
2018-10-21T20:41:24.358Z,68.40
2018-10-21T20:44:27.350Z,67.80
2018-10-21T20:47:31.058Z,67.70
2018-10-21T20:50:34.352Z,67.70
2018-10-21T20:53:37.344Z,67.60
2018-10-21T20:56:41.073Z,67.60
2018-10-21T20:59:45.336Z,67.70
2018-10-21T21:02:48.970Z,68.20
2018-10-21T21:05:52.805Z,68.10
2018-10-21T21:08:55.910Z,68.40
2018-10-21T21:11:59.305Z,68.70
2018-10-21T21:15:02.887Z,68.60
2018-10-21T21:18:05.918Z,68.50
2018-10-21T21:21:09.292Z,69.40
2018-10-21T21:24:12.323Z,69.80
2018-10-21T21:27:15.410Z,68.60
2018-10-21T21:30:18.535Z,68.40
2018-10-21T21:33:21.486Z,68.60
2018-10-21T21:36:24.409Z,69.20
2018-10-21T21:39:27.418Z,68.30
2018-10-21T21:42:30.491Z,68.10
2018-10-21T21:45:33.386Z,68.40
2018-10-21T21:48:37.567Z,68.70
2018-10-21T21:51:40.756Z,68.60
2018-10-21T21:54:43.761Z,68.50
2018-10-21T21:57:46.680Z,68.50
2018-10-21T22:00:49.646Z,68.60
2018-10-21T22:03:52.554Z,69.00
2018-10-21T22:06:55.497Z,69.40
2018-10-21T22:09:58.567Z,68.90
2018-10-21T22:13:01.550Z,68.80
2018-10-21T22:16:05.684Z,68.80
2018-10-21T22:19:09.406Z,68.60
2018-10-21T22:22:12.493Z,68.30
2018-10-21T22:25:15.298Z,67.90
2018-10-21T22:28:18.393Z,67.90
2018-10-21T22:31:21.265Z,67.60
2018-10-21T22:34:24.247Z,68.80
2018-10-21T22:37:27.173Z,68.80
2018-10-21T22:40:30.114Z,68.70
2018-10-21T22:43:33.112Z,69.20
2018-10-21T22:46:36.200Z,70.10
2018-10-21T22:49:39.236Z,69.40
2018-10-21T22:52:42.573Z,69.20
2018-10-21T22:55:45.545Z,68.60
2018-10-21T22:58:48.536Z,69.00
2018-10-21T23:01:51.526Z,69.20
2018-10-21T23:04:54.493Z,69.70
2018-10-21T23:07:57.422Z,70.70
2018-10-21T23:11:00.396Z,71.60
2018-10-21T23:14:03.349Z,71.90
2018-10-21T23:17:06.349Z,72.10
2018-10-21T23:20:09.318Z,72.50
2018-10-21T23:23:12.211Z,72.50
2018-10-21T23:26:15.182Z,72.10
2018-10-21T23:29:18.185Z,71.10
2018-10-21T23:32:21.167Z,70.50
2018-10-21T23:35:24.114Z,70.40
2018-10-21T23:38:27.048Z,70.50
2018-10-21T23:41:29.985Z,70.90
2018-10-21T23:44:32.975Z,70.70
2018-10-21T23:47:35.953Z,71.10
2018-10-21T23:50:38.910Z,71.40
2018-10-21T23:53:41.805Z,72.30
2018-10-21T23:56:44.805Z,71.30
2018-10-21T23:59:47.822Z,71.20
